createdAt,value
2023-04-08T00:02:18.665Z,4.57
2023-04-08T00:04:48.929Z,4.56
2023-04-08T00:07:16.562Z,4.57
2023-04-08T00:09:44.199Z,4.38
2023-04-08T00:12:11.749Z,4.37
2023-04-08T00:14:41.677Z,4.37
2023-04-08T00:17:09.216Z,4.45
2023-04-08T00:19:36.901Z,4.40
2023-04-08T00:22:04.425Z,4.30
2023-04-08T00:24:32.713Z,4.49
2023-04-08T00:27:02.974Z,4.29
2023-04-08T00:29:31.040Z,4.15
2023-04-08T00:31:58.346Z,4.30
2023-04-08T00:34:26.498Z,4.31
2023-04-08T00:36:54.387Z,4.32
2023-04-08T00:39:22.022Z,4.31
2023-04-08T00:41:49.347Z,4.25
2023-04-08T00:44:17.684Z,4.15
2023-04-08T00:46:45.998Z,4.21
2023-04-08T00:49:13.728Z,4.26
2023-04-08T00:51:41.139Z,4.31
2023-04-08T00:54:08.873Z,4.34
2023-04-08T00:56:36.934Z,4.27
2023-04-08T00:59:05.466Z,4.19
2023-04-08T01:01:33.018Z,4.31
2023-04-08T01:04:15.311Z,4.34
2023-04-08T01:06:58.963Z,4.32
2023-04-08T01:09:32.666Z,4.45
2023-04-08T01:12:06.205Z,4.42
2023-04-08T01:14:39.151Z,4.31
2023-04-08T01:17:07.519Z,4.24
2023-04-08T01:19:40.233Z,4.41
2023-04-08T01:22:16.281Z,4.49
2023-04-08T01:24:45.850Z,4.39
2023-04-08T01:27:17.108Z,4.41
2023-04-08T01:29:45.872Z,4.43
2023-04-08T01:32:14.619Z,4.49
2023-04-08T01:34:43.314Z,4.41
2023-04-08T01:37:12.643Z,4.42
2023-04-08T01:39:42.543Z,4.38
2023-04-08T01:42:13.969Z,4.41
2023-04-08T01:44:43.128Z,4.32
2023-04-08T01:47:13.590Z,4.25
2023-04-08T01:49:43.326Z,4.23
2023-04-08T01:52:11.857Z,4.26
2023-04-08T01:54:39.581Z,4.22
2023-04-08T01:57:09.772Z,4.08
2023-04-08T01:59:40.500Z,4.15
2023-04-08T02:02:10.124Z,4.13
2023-04-08T02:04:39.239Z,4.14
2023-04-08T02:07:09.258Z,4.18
2023-04-08T02:09:36.934Z,4.16
2023-04-08T02:12:04.670Z,4.11
2023-04-08T02:14:35.744Z,4.22
2023-04-08T02:17:24.994Z,4.10
2023-04-08T02:20:08.009Z,4.17
2023-04-08T02:23:11.297Z,4.20
2023-04-08T02:25:43.436Z,4.31
2023-04-08T02:28:11.785Z,4.35
2023-04-08T02:30:44.355Z,4.33
2023-04-08T02:33:14.370Z,4.29
2023-04-08T02:35:42.588Z,4.32
2023-04-08T02:38:10.967Z,4.37
2023-04-08T02:40:38.884Z,4.33
2023-04-08T02:43:06.444Z,4.33
2023-04-08T02:45:41.053Z,4.38
2023-04-08T02:48:09.655Z,4.28
2023-04-08T02:50:37.790Z,4.41
2023-04-08T02:53:06.252Z,4.50
2023-04-08T02:55:35.019Z,4.53
2023-04-08T02:58:03.565Z,4.54
2023-04-08T03:00:31.657Z,4.57
2023-04-08T03:03:00.530Z,4.46
2023-04-08T03:05:30.584Z,4.41
2023-04-08T03:07:58.726Z,4.42
2023-04-08T03:10:26.569Z,4.54
2023-04-08T03:12:53.877Z,4.49
2023-04-08T03:15:22.185Z,4.50
2023-04-08T03:17:49.540Z,4.47
2023-04-08T03:20:17.333Z,4.51
2023-04-08T03:22:44.931Z,4.47
2023-04-08T03:25:12.603Z,4.39
2023-04-08T03:27:39.927Z,4.53
2023-04-08T03:30:08.254Z,4.48
2023-04-08T03:32:36.090Z,4.43
2023-04-08T03:35:04.630Z,4.42
2023-04-08T03:37:32.472Z,4.41
2023-04-08T03:40:00.220Z,4.47
2023-04-08T03:42:27.801Z,4.66
2023-04-08T03:44:55.660Z,4.64
2023-04-08T03:47:23.108Z,4.70
2023-04-08T03:49:53.748Z,4.52
2023-04-08T03:52:23.410Z,4.64
2023-04-08T03:54:51.151Z,4.58
2023-04-08T03:57:18.595Z,4.61
2023-04-08T03:59:46.317Z,4.55
2023-04-08T04:02:17.229Z,4.60
2023-04-08T04:04:45.564Z,4.54
2023-04-08T04:07:12.889Z,4.58
2023-04-08T04:09:46.368Z,4.62
2023-04-08T04:12:13.742Z,4.66
2023-04-08T04:14:45.800Z,4.60
2023-04-08T04:17:21.238Z,4.46
2023-04-08T04:19:50.087Z,4.57
2023-04-08T04:22:20.031Z,4.54
2023-04-08T04:24:49.798Z,4.50
2023-04-08T04:27:19.074Z,4.43
2023-04-08T04:29:46.713Z,4.48
2023-04-08T04:32:14.012Z,4.41
2023-04-08T04:34:43.181Z,4.50
2023-04-08T04:37:12.185Z,4.49
2023-04-08T04:39:41.222Z,4.47
2023-04-08T04:42:08.570Z,4.59
2023-04-08T04:44:36.493Z,4.55
2023-04-08T04:47:04.884Z,4.52
2023-04-08T04:49:32.516Z,4.54
2023-04-08T04:51:59.826Z,4.50
2023-04-08T04:54:27.490Z,4.52
2023-04-08T04:56:54.784Z,4.44
2023-04-08T04:59:23.459Z,4.42
2023-04-08T05:01:52.284Z,4.48
2023-04-08T05:04:24.717Z,4.37
2023-04-08T05:06:52.099Z,4.37
2023-04-08T05:09:19.759Z,4.44
2023-04-08T05:11:47.083Z,4.47
2023-04-08T05:14:14.622Z,4.61
2023-04-08T05:16:41.898Z,4.83
2023-04-08T05:19:09.730Z,4.89
2023-04-08T05:21:37.221Z,4.88
2023-04-08T05:24:05.186Z,4.98
2023-04-08T05:26:33.156Z,5.12
2023-04-08T05:29:00.799Z,5.09
2023-04-08T05:31:28.482Z,5.08
2023-04-08T05:33:56.376Z,5.05
2023-04-08T05:36:23.748Z,5.13
2023-04-08T05:38:52.698Z,5.06
2023-04-08T05:41:21.632Z,5.24
2023-04-08T05:43:49.435Z,5.05
2023-04-08T05:46:16.741Z,5.20
2023-04-08T05:48:44.337Z,5.26
2023-04-08T05:51:15.602Z,5.36
2023-04-08T05:53:43.222Z,5.34
2023-04-08T05:56:10.563Z,5.35
2023-04-08T05:58:38.189Z,5.27
2023-04-08T06:01:07.593Z,5.31
2023-04-08T06:03:37.084Z,5.22
2023-04-08T06:06:04.712Z,5.29
2023-04-08T06:08:32.314Z,5.26
2023-04-08T06:10:59.650Z,5.33
2023-04-08T06:13:27.348Z,5.48
2023-04-08T06:15:54.754Z,5.58
2023-04-08T06:18:22.520Z,5.66
2023-04-08T06:20:50.829Z,5.78
2023-04-08T06:23:18.923Z,5.69
2023-04-08T06:25:46.407Z,5.95
2023-04-08T06:28:14.442Z,5.88
2023-04-08T06:30:41.751Z,6.02
2023-04-08T06:33:09.653Z,6.17
2023-04-08T06:35:38.057Z,5.74
2023-04-08T06:38:05.855Z,5.94
2023-04-08T06:40:33.580Z,6.00
2023-04-08T06:43:01.508Z,6.21
2023-04-08T06:45:35.796Z,6.52
2023-04-08T06:48:03.676Z,6.61
2023-04-08T06:50:31.240Z,6.62
2023-04-08T06:52:58.889Z,6.70
2023-04-08T06:55:26.655Z,6.52
2023-04-08T06:57:54.224Z,6.62
2023-04-08T07:00:21.712Z,7.05
2023-04-08T07:02:50.966Z,7.55
2023-04-08T07:05:18.744Z,7.56
2023-04-08T07:07:46.529Z,7.88
2023-04-08T07:10:13.839Z,8.04
2023-04-08T07:12:42.299Z,8.38
2023-04-08T07:15:10.163Z,8.87
2023-04-08T07:17:37.992Z,8.89
2023-04-08T07:20:08.242Z,8.39
2023-04-08T07:22:36.232Z,8.38
2023-04-08T07:25:03.725Z,8.45
2023-04-08T07:27:31.574Z,8.99
2023-04-08T07:29:58.858Z,8.96
2023-04-08T07:32:28.321Z,9.19
2023-04-08T07:34:56.832Z,9.63
2023-04-08T07:37:24.556Z,9.59
2023-04-08T07:39:53.657Z,9.76
2023-04-08T07:42:24.150Z,10.39
2023-04-08T07:44:53.097Z,11.03
2023-04-08T07:47:20.802Z,9.93
2023-04-08T07:49:48.580Z,10.59
2023-04-08T07:52:16.436Z,10.69
2023-04-08T07:54:43.803Z,11.30
2023-04-08T07:57:11.434Z,11.27
2023-04-08T07:59:38.895Z,11.41
2023-04-08T08:02:07.108Z,11.24
2023-04-08T08:04:34.914Z,11.10
2023-04-08T08:07:03.079Z,11.09
2023-04-08T08:09:32.126Z,11.64
2023-04-08T08:11:59.775Z,11.61
2023-04-08T08:14:27.230Z,11.04
2023-04-08T08:16:54.973Z,11.03
2023-04-08T08:19:23.503Z,10.71
2023-04-08T08:21:52.390Z,10.20
2023-04-08T08:24:19.735Z,10.49
2023-04-08T08:26:49.370Z,10.29
2023-04-08T08:29:17.311Z,10.55
2023-04-08T08:31:45.064Z,10.31
2023-04-08T08:34:13.647Z,9.99
2023-04-08T08:36:43.794Z,9.59
2023-04-08T08:39:11.203Z,9.57
2023-04-08T08:41:39.438Z,9.80
2023-04-08T08:44:09.120Z,9.94
2023-04-08T08:46:45.218Z,10.47
2023-04-08T08:49:13.069Z,10.67
2023-04-08T08:51:42.812Z,10.92
2023-04-08T08:54:10.246Z,11.08
2023-04-08T08:56:38.008Z,10.99
2023-04-08T08:59:06.437Z,10.84
2023-04-08T09:01:37.934Z,10.65
2023-04-08T09:04:18.567Z,10.57
2023-04-08T09:06:49.024Z,10.55
2023-04-08T09:09:18.008Z,10.50
2023-04-08T09:11:48.126Z,10.06
2023-04-08T09:14:26.394Z,10.22
2023-04-08T09:16:54.202Z,10.67
2023-04-08T09:19:21.589Z,10.48
2023-04-08T09:22:11.334Z,11.05
2023-04-08T09:24:39.034Z,10.99
2023-04-08T09:27:06.858Z,10.81
2023-04-08T09:29:37.467Z,10.74
2023-04-08T09:32:07.573Z,10.89
2023-04-08T09:34:35.123Z,10.90
2023-04-08T09:37:02.965Z,11.06
2023-04-08T09:39:32.771Z,10.92
2023-04-08T09:42:06.966Z,11.10
2023-04-08T09:44:38.230Z,11.08
2023-04-08T09:47:14.782Z,11.29
2023-04-08T09:49:50.244Z,11.26
2023-04-08T09:52:28.282Z,11.59
2023-04-08T09:55:08.873Z,11.37
2023-04-08T09:58:11.811Z,11.48
2023-04-08T10:00:50.659Z,11.16
2023-04-08T10:03:37.819Z,11.17
2023-04-08T10:06:08.370Z,11.00
2023-04-08T10:08:36.583Z,10.87
2023-04-08T10:11:04.036Z,10.88
2023-04-08T10:13:32.358Z,11.22
2023-04-08T10:16:19.322Z,11.62
2023-04-08T10:18:47.066Z,11.44
2023-04-08T10:21:32.990Z,11.56
2023-04-08T10:24:06.340Z,11.69
2023-04-08T10:26:38.887Z,10.68
2023-04-08T10:29:32.947Z,11.07
2023-04-08T10:32:01.558Z,11.10
2023-04-08T10:34:31.118Z,11.14
2023-04-08T10:37:02.371Z,11.25
2023-04-08T10:39:31.733Z,11.27
2023-04-08T10:42:02.784Z,11.03
2023-04-08T10:44:30.865Z,10.96
2023-04-08T10:46:58.306Z,10.43
2023-04-08T10:49:33.770Z,10.73
2023-04-08T10:52:01.592Z,10.77
2023-04-08T10:54:29.236Z,10.87
2023-04-08T10:56:56.832Z,10.59
2023-04-08T10:59:30.058Z,10.64
2023-04-08T11:01:58.587Z,10.96
2023-04-08T11:04:27.699Z,10.87
2023-04-08T11:06:55.152Z,11.02
2023-04-08T11:09:22.846Z,10.92
2023-04-08T11:11:52.476Z,10.48
2023-04-08T11:14:22.133Z,10.57
2023-04-08T11:16:49.971Z,10.62
2023-04-08T11:19:20.149Z,10.39
2023-04-08T11:21:49.567Z,10.15
2023-04-08T11:24:18.126Z,10.21
2023-04-08T11:26:45.598Z,10.13
2023-04-08T11:29:17.082Z,9.98
2023-04-08T11:31:44.851Z,9.68
2023-04-08T11:34:12.481Z,9.64
2023-04-08T11:36:42.990Z,9.61
2023-04-08T11:39:12.422Z,9.49
2023-04-08T11:41:43.013Z,9.58
2023-04-08T11:44:10.936Z,9.50
2023-04-08T11:46:38.504Z,9.44
2023-04-08T11:49:08.239Z,9.24
2023-04-08T11:51:55.191Z,9.23
2023-04-08T11:54:32.372Z,9.16
2023-04-08T11:57:00.213Z,9.29
2023-04-08T11:59:29.667Z,9.26
2023-04-08T12:01:57.583Z,9.37
2023-04-08T12:04:25.647Z,9.37
2023-04-08T12:06:53.531Z,9.23
2023-04-08T12:09:21.376Z,9.24
2023-04-08T12:11:48.897Z,9.24
2023-04-08T12:14:16.628Z,9.38
2023-04-08T12:16:44.012Z,9.43
2023-04-08T12:19:11.628Z,9.49
2023-04-08T12:21:39.586Z,9.64
2023-04-08T12:24:07.428Z,9.62
2023-04-08T12:26:34.737Z,9.72
2023-04-08T12:29:02.529Z,10.01
2023-04-08T12:31:29.954Z,10.43
2023-04-08T12:33:57.595Z,10.76
2023-04-08T12:36:25.057Z,11.14
2023-04-08T12:38:52.929Z,11.16
2023-04-08T12:41:21.265Z,11.14
2023-04-08T12:44:08.016Z,11.96
2023-04-08T12:46:35.474Z,12.48
2023-04-08T12:49:05.117Z,12.49
2023-04-08T12:51:33.343Z,12.70
2023-04-08T12:54:01.494Z,12.07
2023-04-08T12:56:28.907Z,12.64
2023-04-08T12:58:57.857Z,12.62
2023-04-08T13:01:45.418Z,13.18
2023-04-08T13:04:13.939Z,13.26
2023-04-08T13:06:42.954Z,13.66
2023-04-08T13:09:11.361Z,13.78
2023-04-08T13:11:38.828Z,13.82
2023-04-08T13:14:08.980Z,13.25
2023-04-08T13:16:37.780Z,13.20
2023-04-08T13:19:06.242Z,13.09
2023-04-08T13:21:33.647Z,12.37
2023-04-08T13:24:02.664Z,12.40
2023-04-08T13:26:30.139Z,12.41
2023-04-08T13:28:58.615Z,12.14
2023-04-08T13:31:26.716Z,12.25
2023-04-08T13:33:57.585Z,12.08
2023-04-08T13:36:26.168Z,11.36
2023-04-08T13:38:53.903Z,10.85
2023-04-08T13:41:21.421Z,10.72
2023-04-08T13:43:50.650Z,10.76
2023-04-08T13:46:18.414Z,10.71
2023-04-08T13:48:46.634Z,10.81
2023-04-08T13:51:14.113Z,10.64
2023-04-08T13:53:41.855Z,10.53
2023-04-08T13:56:09.174Z,10.53
2023-04-08T13:58:37.234Z,10.47
2023-04-08T14:01:04.577Z,10.44
2023-04-08T14:03:32.589Z,10.39
2023-04-08T14:06:01.676Z,10.44
2023-04-08T14:08:29.699Z,10.37
2023-04-08T14:10:59.410Z,10.18
2023-04-08T14:13:28.068Z,10.10
2023-04-08T14:15:58.758Z,9.78
2023-04-08T14:18:29.381Z,9.89
2023-04-08T14:20:59.863Z,9.82
2023-04-08T14:23:27.515Z,9.83
2023-04-08T14:25:55.174Z,9.81
2023-04-08T14:28:22.941Z,9.81
2023-04-08T14:30:50.350Z,9.75
2023-04-08T14:33:18.011Z,9.50
2023-04-08T14:35:45.324Z,9.29
2023-04-08T14:38:12.949Z,9.21
2023-04-08T14:40:40.786Z,9.19
2023-04-08T14:43:08.534Z,9.14
2023-04-08T14:45:35.902Z,9.22
2023-04-08T14:48:04.100Z,9.28
2023-04-08T14:50:31.931Z,9.27
2023-04-08T14:53:01.301Z,9.35
2023-04-08T14:55:30.235Z,9.50
2023-04-08T14:57:59.844Z,9.49
2023-04-08T15:00:28.703Z,9.49
2023-04-08T15:02:56.744Z,9.69
2023-04-08T15:05:24.171Z,9.70
2023-04-08T15:07:51.950Z,9.75
2023-04-08T15:10:19.258Z,9.75
2023-04-08T15:12:47.688Z,9.87
2023-04-08T15:15:15.059Z,9.66
2023-04-08T15:17:42.779Z,9.81
2023-04-08T15:20:11.185Z,9.81
2023-04-08T15:22:40.764Z,9.83
2023-04-08T15:25:09.350Z,9.93
2023-04-08T15:27:37.733Z,9.93
2023-04-08T15:30:10.675Z,9.97
2023-04-08T15:32:39.668Z,9.93
2023-04-08T15:35:08.019Z,9.94
2023-04-08T15:37:36.595Z,9.93
2023-04-08T15:40:07.630Z,9.89
2023-04-08T15:42:37.320Z,10.00
2023-04-08T15:45:04.990Z,9.99
2023-04-08T15:47:35.398Z,10.05
2023-04-08T15:50:03.122Z,10.04
2023-04-08T15:52:32.910Z,9.98
2023-04-08T15:55:04.089Z,9.65
2023-04-08T15:57:34.094Z,9.70
2023-04-08T16:00:01.394Z,9.86
2023-04-08T16:02:29.889Z,9.82
2023-04-08T16:04:57.497Z,9.76
2023-04-08T16:07:29.435Z,9.69
2023-04-08T16:10:08.282Z,9.64
2023-04-08T16:12:39.134Z,9.57
2023-04-08T16:15:09.928Z,9.57
2023-04-08T16:17:50.100Z,9.54
2023-04-08T16:20:19.819Z,9.54
2023-04-08T16:22:50.462Z,9.43
2023-04-08T16:25:19.528Z,9.38
2023-04-08T16:28:01.527Z,9.36
2023-04-08T16:30:31.517Z,9.35
2023-04-08T16:32:59.962Z,9.28
2023-04-08T16:35:27.406Z,9.24
2023-04-08T16:37:55.629Z,8.99
2023-04-08T16:40:23.173Z,9.06
2023-04-08T16:42:51.189Z,9.21
2023-04-08T16:45:21.766Z,9.05
2023-04-08T16:47:58.213Z,9.09
2023-04-08T16:50:28.743Z,9.14
2023-04-08T16:52:57.707Z,9.02
2023-04-08T16:55:25.806Z,9.06
2023-04-08T16:57:54.824Z,9.09
2023-04-08T17:00:22.942Z,9.02
2023-04-08T17:02:50.978Z,8.99
2023-04-08T17:05:18.493Z,8.99
2023-04-08T17:07:48.248Z,8.93
2023-04-08T17:10:17.344Z,8.90
2023-04-08T17:12:46.640Z,8.91
2023-04-08T17:15:15.842Z,8.73
2023-04-08T17:17:44.964Z,8.55
2023-04-08T17:20:12.932Z,8.41
2023-04-08T17:22:40.786Z,8.30
2023-04-08T17:25:08.533Z,8.26
2023-04-08T17:27:36.660Z,8.16
2023-04-08T17:30:04.519Z,8.02
2023-04-08T17:32:32.378Z,8.01
2023-04-08T17:34:59.672Z,7.96
2023-04-08T17:37:52.029Z,7.99
2023-04-08T17:40:19.670Z,8.04
2023-04-08T17:42:47.609Z,8.06
2023-04-08T17:45:15.113Z,7.99
2023-04-08T17:47:44.214Z,7.93
2023-04-08T17:50:12.019Z,7.97
2023-04-08T17:52:44.355Z,8.00
2023-04-08T17:55:12.996Z,7.89
2023-04-08T17:57:41.178Z,7.85
2023-04-08T18:03:12.573Z,7.83
2023-04-08T18:05:40.514Z,7.76
2023-04-08T18:08:13.060Z,7.81
2023-04-08T18:11:11.914Z,7.78
2023-04-08T18:13:39.729Z,7.78
2023-04-08T18:16:07.454Z,7.68
2023-04-08T18:18:37.058Z,7.63
2023-04-08T18:21:05.717Z,7.71
2023-04-08T18:23:35.123Z,7.66
2023-04-08T18:26:02.608Z,7.65
2023-04-08T18:28:32.234Z,7.46
2023-04-08T18:31:00.029Z,7.48
2023-04-08T18:33:28.452Z,7.46
2023-04-08T18:35:57.710Z,7.45
2023-04-08T18:38:29.309Z,7.47
2023-04-08T18:40:56.879Z,7.52
2023-04-08T18:43:25.442Z,7.51
2023-04-08T18:45:52.901Z,7.58
2023-04-08T18:48:21.363Z,7.56
2023-04-08T18:50:49.673Z,7.45
2023-04-08T18:53:18.450Z,7.44
2023-04-08T18:55:51.836Z,7.44
2023-04-08T18:58:21.441Z,7.30
2023-04-08T19:00:49.394Z,7.25
2023-04-08T19:03:17.374Z,7.24
2023-04-08T19:05:49.089Z,7.29
2023-04-08T19:08:18.144Z,7.28
2023-04-08T19:10:45.627Z,7.31
2023-04-08T19:13:14.333Z,7.20
2023-04-08T19:15:43.290Z,7.20
2023-04-08T19:18:12.140Z,7.08
2023-04-08T19:20:40.155Z,7.09
2023-04-08T19:23:08.141Z,7.05
2023-04-08T19:25:37.492Z,7.18
2023-04-08T19:28:09.170Z,7.16
2023-04-08T19:30:38.149Z,7.08
2023-04-08T19:33:07.979Z,7.14
2023-04-08T19:35:35.611Z,7.12
2023-04-08T19:38:06.375Z,7.13
2023-04-08T19:40:35.267Z,7.04
2023-04-08T19:43:04.431Z,7.05
2023-04-08T19:45:34.293Z,7.00
2023-04-08T19:48:02.579Z,7.05
2023-04-08T19:50:31.499Z,6.87
2023-04-08T19:53:02.765Z,6.79
2023-04-08T19:55:37.618Z,6.85
2023-04-08T19:58:18.350Z,6.80
2023-04-08T20:00:46.515Z,6.81
2023-04-08T20:03:15.745Z,6.91
2023-04-08T20:05:46.099Z,6.95
2023-04-08T20:08:14.234Z,6.65
2023-04-08T20:10:41.722Z,6.55
2023-04-08T20:13:16.125Z,6.62
2023-04-08T20:15:45.194Z,6.81
2023-04-08T20:18:15.549Z,6.78
2023-04-08T20:20:44.380Z,6.63
2023-04-08T20:23:13.872Z,6.56
2023-04-08T20:25:42.660Z,6.61
2023-04-08T20:28:11.790Z,6.61
2023-04-08T20:30:41.003Z,6.47
2023-04-08T20:33:08.597Z,6.43
2023-04-08T20:35:37.952Z,6.38
2023-04-08T20:38:06.119Z,6.34
2023-04-08T20:40:36.020Z,6.28
2023-04-08T20:43:05.337Z,6.33
2023-04-08T20:45:34.618Z,6.89
2023-04-08T20:48:02.431Z,6.82
2023-04-08T20:50:32.230Z,6.70
2023-04-08T20:53:00.836Z,6.80
2023-04-08T20:55:28.157Z,6.60
2023-04-08T20:57:55.930Z,6.88
2023-04-08T21:00:26.004Z,6.97
2023-04-08T21:02:53.922Z,6.74
2023-04-08T21:05:22.138Z,6.93
2023-04-08T21:07:49.983Z,6.98
2023-04-08T21:10:18.019Z,7.12
2023-04-08T21:12:48.730Z,7.12
2023-04-08T21:15:16.302Z,7.18
2023-04-08T21:17:44.028Z,7.14
2023-04-08T21:20:12.789Z,6.94
2023-04-08T21:22:41.768Z,6.92
2023-04-08T21:25:09.343Z,6.84
2023-04-08T21:27:38.235Z,6.90
2023-04-08T21:30:06.284Z,6.88
2023-04-08T21:32:36.620Z,6.88
2023-04-08T21:35:04.998Z,6.81
2023-04-08T21:37:32.734Z,6.73
2023-04-08T21:40:01.598Z,6.71
2023-04-08T21:42:34.156Z,6.76
2023-04-08T21:45:04.023Z,6.76
2023-04-08T21:47:32.209Z,6.74
2023-04-08T21:50:01.423Z,6.72
2023-04-08T21:52:30.012Z,6.60
2023-04-08T21:54:57.533Z,6.66
2023-04-08T21:57:25.342Z,6.82
2023-04-08T21:59:52.718Z,6.67
2023-04-08T22:02:21.925Z,6.55
2023-04-08T22:04:49.733Z,6.47
2023-04-08T22:07:17.344Z,6.53
2023-04-08T22:09:44.900Z,6.55
2023-04-08T22:12:12.585Z,6.56
2023-04-08T22:14:39.924Z,6.89
2023-04-08T22:17:07.570Z,6.79
2023-04-08T22:19:36.426Z,6.52
2023-04-08T22:22:08.998Z,6.23
2023-04-08T22:24:37.220Z,6.21
2023-04-08T22:27:04.951Z,6.31
2023-04-08T22:29:32.310Z,6.25
2023-04-08T22:32:00.045Z,6.52
2023-04-08T22:34:27.494Z,6.32
2023-04-08T22:36:55.162Z,6.23
2023-04-08T22:39:26.170Z,6.02
2023-04-08T22:41:54.162Z,6.05
2023-04-08T22:44:21.682Z,5.92
2023-04-08T22:46:49.284Z,5.71
2023-04-08T22:49:16.593Z,5.85
2023-04-08T22:51:44.247Z,6.02
2023-04-08T22:54:11.617Z,5.90
2023-04-08T22:56:39.183Z,6.01
2023-04-08T22:59:06.661Z,5.74
2023-04-08T23:01:34.542Z,5.78
2023-04-08T23:04:03.012Z,5.66
2023-04-08T23:06:31.456Z,5.75
2023-04-08T23:08:58.809Z,5.62
2023-04-08T23:11:27.423Z,5.69
2023-04-08T23:13:54.768Z,5.67
2023-04-08T23:16:26.022Z,5.68
2023-04-08T23:18:53.589Z,5.51
2023-04-08T23:21:21.714Z,5.63
2023-04-08T23:23:49.260Z,5.46
2023-04-08T23:26:19.161Z,5.33
2023-04-08T23:28:47.579Z,5.32
2023-04-08T23:31:15.550Z,5.17
2023-04-08T23:33:42.893Z,4.97
2023-04-08T23:36:11.899Z,4.94
2023-04-08T23:38:39.365Z,5.05
2023-04-08T23:41:08.409Z,5.24
2023-04-08T23:43:36.928Z,5.10
2023-04-08T23:46:04.630Z,5.05
2023-04-08T23:48:31.949Z,5.19
2023-04-08T23:50:59.646Z,5.28
2023-04-08T23:53:27.123Z,5.14
2023-04-08T23:56:07.710Z,4.93
2023-04-08T23:58:35.503Z,5.00
